Portada
METAR-TAF:

METAR-TAF

Aeroports :

Aeroport de Palma - Son Sant Joan

Palma, Espanya

latitud: 39-33N, longitud: 002-44E, altitud: 4 m

Observació

L'informe es va fer fa 24 minuts, a les 00:00 UTC
Vent 3 kt del Nord-Est, variant entre Nord/Nord-Est i Est
Temperatura 16°C
Humitat 82%
Pressió 1022 hPa
Visibilitat 10 km o més
Escasses núvols a una alçada de 2300 ft

METAR: LEPA 240000Z 05003KT 030V090 9999 FEW023 16/13 Q1022 NOSIG

Hora: 02:24 (00:24 UTC)

Pronòstic

L'informe es va fer fa 1 hora i 24 minuts, a les 23:00 UTC
Pronòstic vàlid del 24 a les 00 UTC al 24 a les 24 UTC
Vent 6 kt del Nord/Nord-Oest
Visibilitat 10 km o més
Escasses núvols a una alçada de 4000 ft
Temporalment
l' 24 a les 00 UTC al 24 a les 02 UTC
Vent 7 kt del Oest
Temporalment
l' 24 a les 12 UTC al 24 a les 17 UTC
Vent 10 kt del Sud-Oest

TAF: LEPA 232300Z 2400/2424 33006KT 9999 FEW040 TX24/2412Z TN12/2406Z TEMPO 2400/2402 26007KT TEMPO 2412/2417 22010KT

Observacions i pronòstics meteorològics de més de 4000 aeroports (METAR i TAF).

Les estacions disponibles són els punts grocs i vermells al mapa.

Posi el ratolí al punt desitjat per veure el nom de l'estació.

Feu clic per veure les observacions i els pronòstics meteorològics.

Per canviar el mapa: feu clic els botons verds amb una creu de color negre per apropar; al botó verd amb un guió per allunyar la imatge; o en les fletxes verdes per a mapes adjacents.


METAR-TAF: